sensor_id;sensor_type;location;lat;lon;timestamp;temperature;humidity
8910;DHT22;4490;49.072;8.804;2024-03-07T00:01:45;8.10;99.90
8910;DHT22;4490;49.072;8.804;2024-03-07T00:04:11;8.10;99.90
8910;DHT22;4490;49.072;8.804;2024-03-07T00:06:36;8.10;99.90
8910;DHT22;4490;49.072;8.804;2024-03-07T00:09:02;8.10;99.90
8910;DHT22;4490;49.072;8.804;2024-03-07T00:11:28;8.10;99.90
8910;DHT22;4490;49.072;8.804;2024-03-07T00:13:55;8.10;99.90
8910;DHT22;4490;49.072;8.804;2024-03-07T00:16:21;8.00;99.90
8910;DHT22;4490;49.072;8.804;2024-03-07T00:18:46;8.00;99.90
8910;DHT22;4490;49.072;8.804;2024-03-07T00:21:12;8.00;99.90
8910;DHT22;4490;49.072;8.804;2024-03-07T00:23:38;8.00;99.90
8910;DHT22;4490;49.072;8.804;2024-03-07T00:26:04;7.90;99.90
8910;DHT22;4490;49.072;8.804;2024-03-07T00:28:29;7.90;99.90
8910;DHT22;4490;49.072;8.804;2024-03-07T00:30:58;7.90;99.90
8910;DHT22;4490;49.072;8.804;2024-03-07T00:33:24;7.80;99.90
8910;DHT22;4490;49.072;8.804;2024-03-07T00:35:50;7.80;99.90
8910;DHT22;4490;49.072;8.804;2024-03-07T00:38:16;7.70;99.90
8910;DHT22;4490;49.072;8.804;2024-03-07T00:40:42;7.60;99.90
8910;DHT22;4490;49.072;8.804;2024-03-07T00:43:07;7.50;99.90
8910;DHT22;4490;49.072;8.804;2024-03-07T00:45:33;7.40;99.90
8910;DHT22;4490;49.072;8.804;2024-03-07T00:47:58;7.30;99.90
8910;DHT22;4490;49.072;8.804;2024-03-07T00:50:24;7.20;99.90
8910;DHT22;4490;49.072;8.804;2024-03-07T00:52:50;7.10;99.90
8910;DHT22;4490;49.072;8.804;2024-03-07T00:55:16;7.00;99.90
8910;DHT22;4490;49.072;8.804;2024-03-07T00:57:41;6.90;99.90
8910;DHT22;4490;49.072;8.804;2024-03-07T01:00:07;6.80;99.90
8910;DHT22;4490;49.072;8.804;2024-03-07T01:02:40;6.70;99.90
8910;DHT22;4490;49.072;8.804;2024-03-07T01:05:09;6.60;99.90
8910;DHT22;4490;49.072;8.804;2024-03-07T01:07:35;6.50;99.90
8910;DHT22;4490;49.072;8.804;2024-03-07T01:10:03;6.40;99.90
8910;DHT22;4490;49.072;8.804;2024-03-07T01:12:31;6.30;99.90
8910;DHT22;4490;49.072;8.804;2024-03-07T01:14:57;6.20;99.90
8910;DHT22;4490;49.072;8.804;2024-03-07T01:17:24;6.20;99.90
8910;DHT22;4490;49.072;8.804;2024-03-07T01:19:49;6.10;99.90
8910;DHT22;4490;49.072;8.804;2024-03-07T01:22:15;6.10;99.90
8910;DHT22;4490;49.072;8.804;2024-03-07T01:24:40;6.00;99.90
8910;DHT22;4490;49.072;8.804;2024-03-07T01:27:06;6.00;99.90
8910;DHT22;4490;49.072;8.804;2024-03-07T01:29:32;5.90;99.90
8910;DHT22;4490;49.072;8.804;2024-03-07T01:31:57;5.80;99.90
8910;DHT22;4490;49.072;8.804;2024-03-07T01:34:23;5.80;99.90
8910;DHT22;4490;49.072;8.804;2024-03-07T01:36:48;5.70;99.90
8910;DHT22;4490;49.072;8.804;2024-03-07T01:39:16;5.70;99.90
8910;DHT22;4490;49.072;8.804;2024-03-07T01:41:41;5.60;99.90
8910;DHT22;4490;49.072;8.804;2024-03-07T01:44:07;5.50;99.90
8910;DHT22;4490;49.072;8.804;2024-03-07T01:46:33;5.50;99.90
8910;DHT22;4490;49.072;8.804;2024-03-07T01:48:58;5.50;99.90
8910;DHT22;4490;49.072;8.804;2024-03-07T01:51:25;5.40;99.90
8910;DHT22;4490;49.072;8.804;2024-03-07T01:53:51;5.30;99.90
8910;DHT22;4490;49.072;8.804;2024-03-07T01:56:18;5.30;99.90
8910;DHT22;4490;49.072;8.804;2024-03-07T01:58:47;5.30;99.90
8910;DHT22;4490;49.072;8.804;2024-03-07T02:01:13;5.20;99.90
8910;DHT22;4490;49.072;8.804;2024-03-07T02:03:40;5.20;99.90
8910;DHT22;4490;49.072;8.804;2024-03-07T02:06:05;5.10;99.90
8910;DHT22;4490;49.072;8.804;2024-03-07T02:08:31;5.10;99.90
8910;DHT22;4490;49.072;8.804;2024-03-07T02:10:58;5.10;99.90
8910;DHT22;4490;49.072;8.804;2024-03-07T02:13:23;5.10;99.90
8910;DHT22;4490;49.072;8.804;2024-03-07T02:15:49;5.00;99.90
8910;DHT22;4490;49.072;8.804;2024-03-07T02:18:15;5.00;99.90
8910;DHT22;4490;49.072;8.804;2024-03-07T02:20:46;5.00;99.90
8910;DHT22;4490;49.072;8.804;2024-03-07T02:23:12;5.00;99.90
8910;DHT22;4490;49.072;8.804;2024-03-07T02:25:38;4.90;99.90
8910;DHT22;4490;49.072;8.804;2024-03-07T02:28:07;4.80;99.90
8910;DHT22;4490;49.072;8.804;2024-03-07T02:30:33;4.80;99.90
8910;DHT22;4490;49.072;8.804;2024-03-07T02:32:59;4.70;99.90
8910;DHT22;4490;49.072;8.804;2024-03-07T02:35:35;4.70;99.90
8910;DHT22;4490;49.072;8.804;2024-03-07T02:38:02;4.60;99.90
8910;DHT22;4490;49.072;8.804;2024-03-07T02:40:28;4.60;99.90
8910;DHT22;4490;49.072;8.804;2024-03-07T02:42:54;4.60;99.90
8910;DHT22;4490;49.072;8.804;2024-03-07T02:45:19;4.50;99.90
8910;DHT22;4490;49.072;8.804;2024-03-07T02:47:46;4.50;99.90
8910;DHT22;4490;49.072;8.804;2024-03-07T02:50:11;4.50;99.90
8910;DHT22;4490;49.072;8.804;2024-03-07T02:52:37;4.40;99.90
8910;DHT22;4490;49.072;8.804;2024-03-07T02:55:04;4.40;99.90
8910;DHT22;4490;49.072;8.804;2024-03-07T02:57:30;4.40;99.90
8910;DHT22;4490;49.072;8.804;2024-03-07T02:59:56;4.40;99.90
8910;DHT22;4490;49.072;8.804;2024-03-07T03:02:22;4.30;99.90
8910;DHT22;4490;49.072;8.804;2024-03-07T03:04:47;4.30;99.90
8910;DHT22;4490;49.072;8.804;2024-03-07T03:07:13;4.30;99.90
8910;DHT22;4490;49.072;8.804;2024-03-07T03:09:39;4.20;99.90
8910;DHT22;4490;49.072;8.804;2024-03-07T03:12:12;4.20;99.90
8910;DHT22;4490;49.072;8.804;2024-03-07T03:14:37;4.20;99.90
8910;DHT22;4490;49.072;8.804;2024-03-07T03:17:03;4.20;99.90
8910;DHT22;4490;49.072;8.804;2024-03-07T03:19:29;4.20;99.90
8910;DHT22;4490;49.072;8.804;2024-03-07T03:21:55;4.20;99.90
8910;DHT22;4490;49.072;8.804;2024-03-07T03:24:21;4.10;99.90
8910;DHT22;4490;49.072;8.804;2024-03-07T03:26:47;4.10;99.90
8910;DHT22;4490;49.072;8.804;2024-03-07T03:29:13;4.00;99.90
8910;DHT22;4490;49.072;8.804;2024-03-07T03:31:39;4.00;99.90
8910;DHT22;4490;49.072;8.804;2024-03-07T03:34:05;4.00;99.90
8910;DHT22;4490;49.072;8.804;2024-03-07T03:36:30;4.00;99.90
8910;DHT22;4490;49.072;8.804;2024-03-07T03:38:56;4.00;99.90
8910;DHT22;4490;49.072;8.804;2024-03-07T03:41:22;4.00;99.90
8910;DHT22;4490;49.072;8.804;2024-03-07T03:43:48;4.00;99.90
8910;DHT22;4490;49.072;8.804;2024-03-07T03:46:14;4.00;99.90
8910;DHT22;4490;49.072;8.804;2024-03-07T03:48:40;3.90;99.90
8910;DHT22;4490;49.072;8.804;2024-03-07T03:51:09;3.90;99.90
8910;DHT22;4490;49.072;8.804;2024-03-07T03:53:38;3.90;99.90
8910;DHT22;4490;49.072;8.804;2024-03-07T03:56:04;3.90;99.90
8910;DHT22;4490;49.072;8.804;2024-03-07T03:58:32;3.80;99.90
8910;DHT22;4490;49.072;8.804;2024-03-07T04:03:34;3.80;99.90
8910;DHT22;4490;49.072;8.804;2024-03-07T04:06:00;3.80;99.90
8910;DHT22;4490;49.072;8.804;2024-03-07T04:08:25;3.70;99.90
8910;DHT22;4490;49.072;8.804;2024-03-07T04:10:51;3.70;99.90
8910;DHT22;4490;49.072;8.804;2024-03-07T04:13:16;3.60;99.90
8910;DHT22;4490;49.072;8.804;2024-03-07T04:15:42;3.60;99.90
8910;DHT22;4490;49.072;8.804;2024-03-07T04:18:08;3.50;99.90
8910;DHT22;4490;49.072;8.804;2024-03-07T04:20:33;3.50;99.90
8910;DHT22;4490;49.072;8.804;2024-03-07T04:22:59;3.50;99.90
8910;DHT22;4490;49.072;8.804;2024-03-07T04:25:25;3.50;99.90
8910;DHT22;4490;49.072;8.804;2024-03-07T04:27:50;3.40;99.90
8910;DHT22;4490;49.072;8.804;2024-03-07T04:30:16;3.40;99.90
8910;DHT22;4490;49.072;8.804;2024-03-07T04:32:42;3.40;99.90
8910;DHT22;4490;49.072;8.804;2024-03-07T04:35:08;3.30;99.90
8910;DHT22;4490;49.072;8.804;2024-03-07T04:37:38;3.30;99.90
8910;DHT22;4490;49.072;8.804;2024-03-07T04:40:09;3.40;99.90
8910;DHT22;4490;49.072;8.804;2024-03-07T04:42:42;3.40;99.90
8910;DHT22;4490;49.072;8.804;2024-03-07T04:45:09;3.40;99.90
8910;DHT22;4490;49.072;8.804;2024-03-07T04:47:36;3.40;99.90
8910;DHT22;4490;49.072;8.804;2024-03-07T04:50:02;3.40;99.90
8910;DHT22;4490;49.072;8.804;2024-03-07T04:52:28;3.30;99.90
8910;DHT22;4490;49.072;8.804;2024-03-07T04:54:53;3.30;99.90
8910;DHT22;4490;49.072;8.804;2024-03-07T04:57:20;3.40;99.90
8910;DHT22;4490;49.072;8.804;2024-03-07T04:59:46;3.40;99.90
8910;DHT22;4490;49.072;8.804;2024-03-07T05:02:11;3.40;99.90
8910;DHT22;4490;49.072;8.804;2024-03-07T05:04:37;3.40;99.90
8910;DHT22;4490;49.072;8.804;2024-03-07T05:07:03;3.40;99.90
8910;DHT22;4490;49.072;8.804;2024-03-07T05:09:28;3.40;99.90
8910;DHT22;4490;49.072;8.804;2024-03-07T05:11:55;3.40;99.90
8910;DHT22;4490;49.072;8.804;2024-03-07T05:14:21;3.40;99.90
8910;DHT22;4490;49.072;8.804;2024-03-07T05:16:50;3.30;99.90
8910;DHT22;4490;49.072;8.804;2024-03-07T05:19:34;3.30;99.90
8910;DHT22;4490;49.072;8.804;2024-03-07T05:22:01;3.30;99.90
8910;DHT22;4490;49.072;8.804;2024-03-07T05:24:30;3.20;99.90
8910;DHT22;4490;49.072;8.804;2024-03-07T05:26:56;3.10;99.90
8910;DHT22;4490;49.072;8.804;2024-03-07T05:29:22;3.10;99.90
8910;DHT22;4490;49.072;8.804;2024-03-07T05:31:48;3.10;99.90
8910;DHT22;4490;49.072;8.804;2024-03-07T05:34:17;3.10;99.90
8910;DHT22;4490;49.072;8.804;2024-03-07T05:36:48;3.10;99.90
8910;DHT22;4490;49.072;8.804;2024-03-07T05:39:15;3.10;99.90
8910;DHT22;4490;49.072;8.804;2024-03-07T05:41:42;3.20;99.90
8910;DHT22;4490;49.072;8.804;2024-03-07T05:44:08;3.20;99.90
8910;DHT22;4490;49.072;8.804;2024-03-07T05:46:43;3.20;99.90
8910;DHT22;4490;49.072;8.804;2024-03-07T05:49:14;3.20;99.90
8910;DHT22;4490;49.072;8.804;2024-03-07T05:51:40;3.10;99.90
8910;DHT22;4490;49.072;8.804;2024-03-07T05:54:13;3.10;99.90
8910;DHT22;4490;49.072;8.804;2024-03-07T05:56:39;3.00;99.90
8910;DHT22;4490;49.072;8.804;2024-03-07T05:59:08;3.00;99.90
8910;DHT22;4490;49.072;8.804;2024-03-07T06:01:37;3.00;99.90
8910;DHT22;4490;49.072;8.804;2024-03-07T06:04:05;3.00;99.90
8910;DHT22;4490;49.072;8.804;2024-03-07T06:06:32;2.90;99.90
8910;DHT22;4490;49.072;8.804;2024-03-07T06:09:08;2.90;99.90
8910;DHT22;4490;49.072;8.804;2024-03-07T06:11:35;2.90;99.90
8910;DHT22;4490;49.072;8.804;2024-03-07T06:14:01;2.90;99.90
8910;DHT22;4490;49.072;8.804;2024-03-07T06:16:33;2.80;99.90
8910;DHT22;4490;49.072;8.804;2024-03-07T06:19:01;2.80;99.90
8910;DHT22;4490;49.072;8.804;2024-03-07T06:21:27;2.80;99.90
8910;DHT22;4490;49.072;8.804;2024-03-07T06:23:56;2.90;99.90
8910;DHT22;4490;49.072;8.804;2024-03-07T06:26:31;2.90;99.90
8910;DHT22;4490;49.072;8.804;2024-03-07T06:29:07;3.00;99.90
8910;DHT22;4490;49.072;8.804;2024-03-07T06:31:39;3.00;99.90
8910;DHT22;4490;49.072;8.804;2024-03-07T06:34:05;3.00;99.90
8910;DHT22;4490;49.072;8.804;2024-03-07T06:36:30;3.00;99.90
8910;DHT22;4490;49.072;8.804;2024-03-07T06:38:56;3.00;99.90
8910;DHT22;4490;49.072;8.804;2024-03-07T06:41:22;3.00;99.90
8910;DHT22;4490;49.072;8.804;2024-03-07T06:43:47;3.00;99.90
8910;DHT22;4490;49.072;8.804;2024-03-07T06:46:15;3.00;99.90
8910;DHT22;4490;49.072;8.804;2024-03-07T06:48:42;3.00;99.90
8910;DHT22;4490;49.072;8.804;2024-03-07T06:51:09;3.00;99.90
8910;DHT22;4490;49.072;8.804;2024-03-07T06:53:35;3.10;99.90
8910;DHT22;4490;49.072;8.804;2024-03-07T06:56:01;3.10;99.90
8910;DHT22;4490;49.072;8.804;2024-03-07T06:58:26;3.10;99.90
8910;DHT22;4490;49.072;8.804;2024-03-07T07:00:52;3.10;99.90
8910;DHT22;4490;49.072;8.804;2024-03-07T07:03:21;3.10;99.90
8910;DHT22;4490;49.072;8.804;2024-03-07T07:05:48;3.20;99.90
8910;DHT22;4490;49.072;8.804;2024-03-07T07:08:13;3.20;99.90
8910;DHT22;4490;49.072;8.804;2024-03-07T07:10:39;3.30;99.90
8910;DHT22;4490;49.072;8.804;2024-03-07T07:13:10;3.30;99.90
8910;DHT22;4490;49.072;8.804;2024-03-07T07:15:36;3.40;99.90
8910;DHT22;4490;49.072;8.804;2024-03-07T07:18:03;3.40;99.90
8910;DHT22;4490;49.072;8.804;2024-03-07T07:20:29;3.40;99.90
8910;DHT22;4490;49.072;8.804;2024-03-07T07:22:55;3.50;99.90
8910;DHT22;4490;49.072;8.804;2024-03-07T07:25:23;3.80;99.90
8910;DHT22;4490;49.072;8.804;2024-03-07T07:27:51;4.30;99.90
8910;DHT22;4490;49.072;8.804;2024-03-07T07:30:18;5.00;99.90
8910;DHT22;4490;49.072;8.804;2024-03-07T07:32:45;5.70;99.90
8910;DHT22;4490;49.072;8.804;2024-03-07T07:35:11;6.40;99.90
8910;DHT22;4490;49.072;8.804;2024-03-07T07:37:45;7.00;99.90
8910;DHT22;4490;49.072;8.804;2024-03-07T07:40:15;7.60;99.90
8910;DHT22;4490;49.072;8.804;2024-03-07T07:42:44;8.10;99.90
8910;DHT22;4490;49.072;8.804;2024-03-07T07:45:12;8.50;99.90
8910;DHT22;4490;49.072;8.804;2024-03-07T07:47:49;8.80;99.90
8910;DHT22;4490;49.072;8.804;2024-03-07T07:50:16;9.30;99.90
8910;DHT22;4490;49.072;8.804;2024-03-07T07:52:58;9.60;99.90
8910;DHT22;4490;49.072;8.804;2024-03-07T07:55:27;10.00;99.90
8910;DHT22;4490;49.072;8.804;2024-03-07T07:57:54;10.30;99.90
8910;DHT22;4490;49.072;8.804;2024-03-07T08:00:28;10.60;99.90
8910;DHT22;4490;49.072;8.804;2024-03-07T08:03:05;11.00;98.10
8910;DHT22;4490;49.072;8.804;2024-03-07T08:05:35;11.30;94.40
8910;DHT22;4490;49.072;8.804;2024-03-07T08:08:03;11.70;93.00
8910;DHT22;4490;49.072;8.804;2024-03-07T08:10:31;11.90;91.60
8910;DHT22;4490;49.072;8.804;2024-03-07T08:12:58;11.90;89.70
8910;DHT22;4490;49.072;8.804;2024-03-07T08:15:25;11.70;88.00
8910;DHT22;4490;49.072;8.804;2024-03-07T08:17:53;11.30;87.00
8910;DHT22;4490;49.072;8.804;2024-03-07T08:20:20;10.80;86.90
8910;DHT22;4490;49.072;8.804;2024-03-07T08:22:48;10.30;88.10
8910;DHT22;4490;49.072;8.804;2024-03-07T08:25:17;10.00;89.10
8910;DHT22;4490;49.072;8.804;2024-03-07T08:27:46;9.70;90.20
8910;DHT22;4490;49.072;8.804;2024-03-07T08:30:14;9.50;90.60
8910;DHT22;4490;49.072;8.804;2024-03-07T08:32:40;9.40;90.80
8910;DHT22;4490;49.072;8.804;2024-03-07T08:35:07;9.20;90.30
8910;DHT22;4490;49.072;8.804;2024-03-07T08:37:39;9.00;90.40
8910;DHT22;4490;49.072;8.804;2024-03-07T08:40:06;8.80;90.80
8910;DHT22;4490;49.072;8.804;2024-03-07T08:42:39;8.60;91.50
8910;DHT22;4490;49.072;8.804;2024-03-07T08:45:07;8.40;91.50
8910;DHT22;4490;49.072;8.804;2024-03-07T08:47:36;8.20;92.20
8910;DHT22;4490;49.072;8.804;2024-03-07T08:50:04;8.00;92.70
8910;DHT22;4490;49.072;8.804;2024-03-07T08:52:37;8.00;93.40
8910;DHT22;4490;49.072;8.804;2024-03-07T08:55:04;7.90;93.60
8910;DHT22;4490;49.072;8.804;2024-03-07T08:57:30;7.80;93.40
8910;DHT22;4490;49.072;8.804;2024-03-07T08:59:56;7.70;93.80
8910;DHT22;4490;49.072;8.804;2024-03-07T09:02:22;7.60;93.60
8910;DHT22;4490;49.072;8.804;2024-03-07T09:04:48;7.50;93.80
8910;DHT22;4490;49.072;8.804;2024-03-07T09:07:14;7.50;94.50
8910;DHT22;4490;49.072;8.804;2024-03-07T09:09:43;7.40;95.80
8910;DHT22;4490;49.072;8.804;2024-03-07T09:12:10;7.40;95.60
8910;DHT22;4490;49.072;8.804;2024-03-07T09:14:36;7.40;94.90
8910;DHT22;4490;49.072;8.804;2024-03-07T09:17:03;7.40;96.00
8910;DHT22;4490;49.072;8.804;2024-03-07T09:19:30;7.40;97.60
8910;DHT22;4490;49.072;8.804;2024-03-07T09:21:56;7.40;98.60
8910;DHT22;4490;49.072;8.804;2024-03-07T09:24:22;7.50;99.90
8910;DHT22;4490;49.072;8.804;2024-03-07T09:26:51;7.50;99.90
8910;DHT22;4490;49.072;8.804;2024-03-07T09:29:20;7.60;99.90
8910;DHT22;4490;49.072;8.804;2024-03-07T09:31:49;7.60;99.70
8910;DHT22;4490;49.072;8.804;2024-03-07T09:34:17;7.60;99.60
8910;DHT22;4490;49.072;8.804;2024-03-07T09:36:44;7.60;98.10
8910;DHT22;4490;49.072;8.804;2024-03-07T09:39:10;7.70;96.80
8910;DHT22;4490;49.072;8.804;2024-03-07T09:41:38;7.60;97.00
8910;DHT22;4490;49.072;8.804;2024-03-07T09:44:05;7.60;97.70
8910;DHT22;4490;49.072;8.804;2024-03-07T09:46:31;7.60;98.00
8910;DHT22;4490;49.072;8.804;2024-03-07T09:48:58;7.60;97.80
8910;DHT22;4490;49.072;8.804;2024-03-07T09:51:24;7.60;98.70
8910;DHT22;4490;49.072;8.804;2024-03-07T09:53:51;7.70;99.90
8910;DHT22;4490;49.072;8.804;2024-03-07T09:56:20;7.80;99.90
8910;DHT22;4490;49.072;8.804;2024-03-07T09:58:50;7.90;98.30
8910;DHT22;4490;49.072;8.804;2024-03-07T10:01:20;8.00;99.30
8910;DHT22;4490;49.072;8.804;2024-03-07T10:03:50;8.10;98.80
8910;DHT22;4490;49.072;8.804;2024-03-07T10:06:19;8.30;98.60
8910;DHT22;4490;49.072;8.804;2024-03-07T10:08:47;8.50;96.60
8910;DHT22;4490;49.072;8.804;2024-03-07T10:11:13;8.70;97.00
8910;DHT22;4490;49.072;8.804;2024-03-07T10:13:39;8.80;96.70
8910;DHT22;4490;49.072;8.804;2024-03-07T10:16:06;8.90;94.30
8910;DHT22;4490;49.072;8.804;2024-03-07T10:18:39;9.00;94.70
8910;DHT22;4490;49.072;8.804;2024-03-07T10:21:07;9.00;94.30
8910;DHT22;4490;49.072;8.804;2024-03-07T10:23:32;9.00;93.50
8910;DHT22;4490;49.072;8.804;2024-03-07T10:25:59;9.00;93.70
8910;DHT22;4490;49.072;8.804;2024-03-07T10:28:27;9.10;94.00
8910;DHT22;4490;49.072;8.804;2024-03-07T10:30:53;9.20;94.30
8910;DHT22;4490;49.072;8.804;2024-03-07T10:33:19;9.30;94.10
8910;DHT22;4490;49.072;8.804;2024-03-07T10:35:48;9.50;92.20
8910;DHT22;4490;49.072;8.804;2024-03-07T10:38:14;9.60;92.70
8910;DHT22;4490;49.072;8.804;2024-03-07T10:40:41;9.70;92.60
8910;DHT22;4490;49.072;8.804;2024-03-07T10:43:11;9.80;92.90
8910;DHT22;4490;49.072;8.804;2024-03-07T10:45:47;9.90;92.70
8910;DHT22;4490;49.072;8.804;2024-03-07T10:48:18;10.10;91.40
8910;DHT22;4490;49.072;8.804;2024-03-07T10:51:18;10.20;91.30
8910;DHT22;4490;49.072;8.804;2024-03-07T10:53:57;10.30;91.10
8910;DHT22;4490;49.072;8.804;2024-03-07T10:56:42;10.40;91.10
8910;DHT22;4490;49.072;8.804;2024-03-07T10:59:19;10.40;91.80
8910;DHT22;4490;49.072;8.804;2024-03-07T11:04:22;10.60;90.80
8910;DHT22;4490;49.072;8.804;2024-03-07T11:06:48;10.50;90.90
8910;DHT22;4490;49.072;8.804;2024-03-07T11:09:15;10.50;90.60
8910;DHT22;4490;49.072;8.804;2024-03-07T11:11:48;10.50;90.10
8910;DHT22;4490;49.072;8.804;2024-03-07T11:14:14;10.60;90.20
8910;DHT22;4490;49.072;8.804;2024-03-07T11:16:42;10.70;90.90
8910;DHT22;4490;49.072;8.804;2024-03-07T11:19:26;11.00;90.60
8910;DHT22;4490;49.072;8.804;2024-03-07T11:21:54;11.20;88.30
8910;DHT22;4490;49.072;8.804;2024-03-07T11:24:30;11.30;90.00
8910;DHT22;4490;49.072;8.804;2024-03-07T11:27:04;11.60;89.00
8910;DHT22;4490;49.072;8.804;2024-03-07T11:29:51;11.70;88.00
8910;DHT22;4490;49.072;8.804;2024-03-07T11:32:21;11.80;87.30
8910;DHT22;4490;49.072;8.804;2024-03-07T11:34:48;11.80;85.80
8910;DHT22;4490;49.072;8.804;2024-03-07T11:37:37;11.80;85.60
8910;DHT22;4490;49.072;8.804;2024-03-07T11:40:07;11.90;85.70
8910;DHT22;4490;49.072;8.804;2024-03-07T11:42:33;11.90;85.10
8910;DHT22;4490;49.072;8.804;2024-03-07T11:45:02;11.80;83.60
8910;DHT22;4490;49.072;8.804;2024-03-07T11:47:38;11.70;83.90
8910;DHT22;4490;49.072;8.804;2024-03-07T11:50:06;11.60;82.90
8910;DHT22;4490;49.072;8.804;2024-03-07T11:52:38;11.40;82.20
8910;DHT22;4490;49.072;8.804;2024-03-07T11:55:08;11.30;82.80
8910;DHT22;4490;49.072;8.804;2024-03-07T11:57:33;11.20;81.90
8910;DHT22;4490;49.072;8.804;2024-03-07T12:00:00;11.10;83.10
8910;DHT22;4490;49.072;8.804;2024-03-07T12:02:27;11.00;83.80
8910;DHT22;4490;49.072;8.804;2024-03-07T12:04:53;10.90;83.90
8910;DHT22;4490;49.072;8.804;2024-03-07T12:07:19;10.90;83.80
8910;DHT22;4490;49.072;8.804;2024-03-07T12:09:48;10.80;84.40
8910;DHT22;4490;49.072;8.804;2024-03-07T12:12:20;10.80;84.00
8910;DHT22;4490;49.072;8.804;2024-03-07T12:14:47;10.90;84.20
8910;DHT22;4490;49.072;8.804;2024-03-07T12:17:16;10.90;84.50
8910;DHT22;4490;49.072;8.804;2024-03-07T12:19:42;10.90;83.80
8910;DHT22;4490;49.072;8.804;2024-03-07T12:22:08;10.90;83.00
8910;DHT22;4490;49.072;8.804;2024-03-07T12:24:42;10.90;82.10
8910;DHT22;4490;49.072;8.804;2024-03-07T12:27:12;10.90;81.20
8910;DHT22;4490;49.072;8.804;2024-03-07T12:29:41;10.80;80.70
8910;DHT22;4490;49.072;8.804;2024-03-07T12:32:14;10.70;81.30
8910;DHT22;4490;49.072;8.804;2024-03-07T12:34:40;10.70;82.20
8910;DHT22;4490;49.072;8.804;2024-03-07T12:37:11;10.70;83.00
8910;DHT22;4490;49.072;8.804;2024-03-07T12:39:37;10.60;82.60
8910;DHT22;4490;49.072;8.804;2024-03-07T12:42:21;10.60;81.90
8910;DHT22;4490;49.072;8.804;2024-03-07T12:44:46;10.60;83.20
8910;DHT22;4490;49.072;8.804;2024-03-07T12:47:13;10.60;83.20
8910;DHT22;4490;49.072;8.804;2024-03-07T12:49:42;10.60;82.90
8910;DHT22;4490;49.072;8.804;2024-03-07T12:52:08;10.60;82.50
8910;DHT22;4490;49.072;8.804;2024-03-07T12:54:35;10.60;83.10
8910;DHT22;4490;49.072;8.804;2024-03-07T12:57:06;10.60;83.20
8910;DHT22;4490;49.072;8.804;2024-03-07T12:59:34;10.60;83.20
8910;DHT22;4490;49.072;8.804;2024-03-07T13:04:44;10.60;81.80
8910;DHT22;4490;49.072;8.804;2024-03-07T13:07:10;10.50;83.10
8910;DHT22;4490;49.072;8.804;2024-03-07T13:09:36;10.50;82.50
8910;DHT22;4490;49.072;8.804;2024-03-07T13:12:03;10.50;83.10
8910;DHT22;4490;49.072;8.804;2024-03-07T13:14:33;10.50;83.30
8910;DHT22;4490;49.072;8.804;2024-03-07T13:17:04;10.50;83.30
8910;DHT22;4490;49.072;8.804;2024-03-07T13:19:32;10.50;84.00
8910;DHT22;4490;49.072;8.804;2024-03-07T13:21:58;10.50;84.40
8910;DHT22;4490;49.072;8.804;2024-03-07T13:24:25;10.50;83.80
8910;DHT22;4490;49.072;8.804;2024-03-07T13:26:51;10.50;83.70
8910;DHT22;4490;49.072;8.804;2024-03-07T13:29:17;10.40;83.70
8910;DHT22;4490;49.072;8.804;2024-03-07T13:31:45;10.40;83.30
8910;DHT22;4490;49.072;8.804;2024-03-07T13:34:11;10.40;82.90
8910;DHT22;4490;49.072;8.804;2024-03-07T13:36:41;10.30;83.30
8910;DHT22;4490;49.072;8.804;2024-03-07T13:39:08;10.30;83.00
8910;DHT22;4490;49.072;8.804;2024-03-07T13:41:37;10.30;83.10
8910;DHT22;4490;49.072;8.804;2024-03-07T13:44:04;10.20;83.80
8910;DHT22;4490;49.072;8.804;2024-03-07T13:46:29;10.20;84.20
8910;DHT22;4490;49.072;8.804;2024-03-07T13:48:56;10.20;83.70
8910;DHT22;4490;49.072;8.804;2024-03-07T13:51:33;10.30;84.10
8910;DHT22;4490;49.072;8.804;2024-03-07T13:54:01;10.20;83.00
8910;DHT22;4490;49.072;8.804;2024-03-07T13:56:52;10.20;82.80
8910;DHT22;4490;49.072;8.804;2024-03-07T13:59:46;10.30;83.50
8910;DHT22;4490;49.072;8.804;2024-03-07T14:05:52;10.20;83.50
8910;DHT22;4490;49.072;8.804;2024-03-07T14:33:06;10.00;84.70
8910;DHT22;4490;49.072;8.804;2024-03-07T14:36:00;10.00;85.20
8910;DHT22;4490;49.072;8.804;2024-03-07T14:38:46;10.00;85.10
8910;DHT22;4490;49.072;8.804;2024-03-07T14:41:15;10.00;84.80
8910;DHT22;4490;49.072;8.804;2024-03-07T14:43:42;10.00;85.50
8910;DHT22;4490;49.072;8.804;2024-03-07T14:46:12;10.00;86.70
8910;DHT22;4490;49.072;8.804;2024-03-07T14:48:39;10.00;86.20
8910;DHT22;4490;49.072;8.804;2024-03-07T14:51:07;10.10;87.30
8910;DHT22;4490;49.072;8.804;2024-03-07T14:53:34;10.10;86.50
8910;DHT22;4490;49.072;8.804;2024-03-07T14:55:59;10.10;86.30
8910;DHT22;4490;49.072;8.804;2024-03-07T14:58:25;10.10;86.50
8910;DHT22;4490;49.072;8.804;2024-03-07T15:00:52;10.20;87.30
8910;DHT22;4490;49.072;8.804;2024-03-07T15:03:19;10.20;85.90
8910;DHT22;4490;49.072;8.804;2024-03-07T15:05:46;10.20;86.10
8910;DHT22;4490;49.072;8.804;2024-03-07T15:08:14;10.20;85.30
8910;DHT22;4490;49.072;8.804;2024-03-07T15:10:58;10.20;85.00
8910;DHT22;4490;49.072;8.804;2024-03-07T15:13:24;10.20;84.70
8910;DHT22;4490;49.072;8.804;2024-03-07T15:15:50;10.20;84.30
8910;DHT22;4490;49.072;8.804;2024-03-07T15:18:15;10.10;84.50
8910;DHT22;4490;49.072;8.804;2024-03-07T15:20:41;10.10;84.90
8910;DHT22;4490;49.072;8.804;2024-03-07T15:23:07;10.10;85.00
8910;DHT22;4490;49.072;8.804;2024-03-07T15:25:33;10.10;84.80
8910;DHT22;4490;49.072;8.804;2024-03-07T15:27:59;10.10;84.50
8910;DHT22;4490;49.072;8.804;2024-03-07T15:30:26;10.10;84.00
8910;DHT22;4490;49.072;8.804;2024-03-07T15:33:00;10.10;84.80
8910;DHT22;4490;49.072;8.804;2024-03-07T15:35:26;10.00;83.80
8910;DHT22;4490;49.072;8.804;2024-03-07T15:37:52;10.00;84.10
8910;DHT22;4490;49.072;8.804;2024-03-07T15:40:20;10.00;83.10
8910;DHT22;4490;49.072;8.804;2024-03-07T15:42:47;10.00;83.40
8910;DHT22;4490;49.072;8.804;2024-03-07T15:45:16;10.00;83.90
8910;DHT22;4490;49.072;8.804;2024-03-07T15:48:02;10.00;84.20
8910;DHT22;4490;49.072;8.804;2024-03-07T15:50:36;10.10;83.90
8910;DHT22;4490;49.072;8.804;2024-03-07T15:53:05;10.10;84.00
8910;DHT22;4490;49.072;8.804;2024-03-07T15:55:37;10.10;83.90
8910;DHT22;4490;49.072;8.804;2024-03-07T15:58:04;10.10;84.10
8910;DHT22;4490;49.072;8.804;2024-03-07T16:00:31;10.10;84.10
8910;DHT22;4490;49.072;8.804;2024-03-07T16:03:01;10.10;84.00
8910;DHT22;4490;49.072;8.804;2024-03-07T16:05:31;10.10;83.90
8910;DHT22;4490;49.072;8.804;2024-03-07T16:08:02;10.10;83.30
8910;DHT22;4490;49.072;8.804;2024-03-07T16:10:40;10.10;82.40
8910;DHT22;4490;49.072;8.804;2024-03-07T16:13:09;10.10;82.90
8910;DHT22;4490;49.072;8.804;2024-03-07T16:15:38;10.00;83.10
8910;DHT22;4490;49.072;8.804;2024-03-07T16:18:04;10.00;82.90
8910;DHT22;4490;49.072;8.804;2024-03-07T16:20:32;10.00;82.60
8910;DHT22;4490;49.072;8.804;2024-03-07T16:22:59;10.00;82.80
8910;DHT22;4490;49.072;8.804;2024-03-07T16:25:26;9.90;84.10
8910;DHT22;4490;49.072;8.804;2024-03-07T16:27:53;9.90;84.20
8910;DHT22;4490;49.072;8.804;2024-03-07T16:30:23;9.80;84.40
8910;DHT22;4490;49.072;8.804;2024-03-07T16:32:50;9.80;84.50
8910;DHT22;4490;49.072;8.804;2024-03-07T16:35:24;9.80;84.50
8910;DHT22;4490;49.072;8.804;2024-03-07T16:37:49;9.80;84.40
8910;DHT22;4490;49.072;8.804;2024-03-07T16:40:20;9.80;84.70
8910;DHT22;4490;49.072;8.804;2024-03-07T16:42:48;9.70;84.80
8910;DHT22;4490;49.072;8.804;2024-03-07T16:45:37;9.70;84.50
8910;DHT22;4490;49.072;8.804;2024-03-07T16:48:04;9.70;84.80
8910;DHT22;4490;49.072;8.804;2024-03-07T16:50:35;9.60;84.60
8910;DHT22;4490;49.072;8.804;2024-03-07T16:53:02;9.60;84.60
8910;DHT22;4490;49.072;8.804;2024-03-07T16:55:30;9.50;84.90